Flight Briefing for CPX716

Departure Arrival
General Omar Torrijos International Airport (MPTO)
Click to view FAA NOTAMS
Miami International Airport (KMIA)
Click to view FAA NOTAMS
Departure Time Arrival Time
N/A N/A
Aircraft Distance
B767-300BDSF 1007nm
Departure METAR Arrival METAR
MPTO 192300Z 34012KT 9999 FEW020 30/19 Q1009 NOSIG KMIA 192253Z 10011KT 10SM SCT027 26/21 A3013 RMK AO2 SLP202 T02560206
Suggested Route
TASNO UL780 URSUS FLIPR6


View recent IFR Routes data
Notes



Charts and Procedures

Charts for MPTO
No chart available
Charts for KMIA
No chart available

Ventusky Weather




{"cat":null,"equip":null,"transponder":null,"pbn":"PBN\/","maxpax":null,"oew":"0.0","mzfw":"0.0","mtow":"0.0","mlw":"0.0","maxfuel":"0.0"} DEVELOPMENTAL TEST USE ONLY